Time;durP1;ratioP1;P1;durP2;ratioP2;P2;SDS_P1;SDS_P2;PMS_P1;PMS_P2;Temp;Humidity;BMP_temperature;BMP_pressure;BME280_temperature;BME280_humidity;BME280_pressure;Samples;Min_cycle;Max_cycle;Signal;HPM_P1;HPM_P2
2022/03/22 00:00:38;;;;;;;17.55;6.85;;;9.10;97.50;;;;;;4927775;29;20027;-75
2022/03/22 00:03:05;;;;;;;12.73;5.13;;;9.10;97.40;;;;;;4935525;29;20387;-75
2022/03/22 00:05:32;;;;;;;14.00;5.68;;;9.10;97.50;;;;;;4935051;29;20035;-76
2022/03/22 00:08:00;;;;;;;14.98;6.10;;;9.20;97.50;;;;;;4935399;29;20094;-75
2022/03/22 00:10:28;;;;;;;20.00;5.68;;;9.10;97.70;;;;;;4935002;29;20107;-75
2022/03/22 00:12:54;;;;;;;15.18;6.38;;;9.10;97.80;;;;;;4934039;29;20024;-75
2022/03/22 00:15:19;;;;;;;12.65;5.95;;;9.10;98.00;;;;;;4935200;29;20046;-75
2022/03/22 00:17:45;;;;;;;16.73;5.90;;;9.10;98.30;;;;;;4935288;29;20025;-75
2022/03/22 00:20:11;;;;;;;19.05;6.30;;;9.10;98.60;;;;;;4934692;29;20087;-75
2022/03/22 00:22:38;;;;;;;13.77;5.65;;;9.10;98.90;;;;;;4935229;29;20038;-75
2022/03/22 00:25:06;;;;;;;16.17;6.10;;;9.10;99.30;;;;;;4935083;29;20028;-76
2022/03/22 00:27:50;;;;;;;15.90;5.88;;;9.10;99.50;;;;;;4933382;29;20407;-75
2022/03/22 00:30:26;;;;;;;12.82;5.38;;;9.10;99.90;;;;;;4916515;29;20287;-75
2022/03/22 00:32:54;;;;;;;18.88;5.75;;;9.00;99.90;;;;;;4916147;29;20035;-75
2022/03/22 00:35:25;;;;;;;14.05;6.20;;;9.00;99.60;;;;;;4898422;29;20408;-75
2022/03/22 00:37:53;;;;;;;13.10;5.68;;;9.00;99.50;;;;;;4916440;29;20039;-75
2022/03/22 00:40:20;;;;;;;16.17;6.25;;;9.00;99.40;;;;;;4916099;29;20067;-75
2022/03/22 00:42:48;;;;;;;19.88;6.70;;;9.00;99.40;;;;;;4933800;29;20083;-75
2022/03/22 00:45:16;;;;;;;16.30;5.38;;;9.00;99.50;;;;;;4934798;29;20032;-75
2022/03/22 00:47:46;;;;;;;18.67;5.90;;;8.90;99.80;;;;;;4934644;29;20028;-75
2022/03/22 00:50:13;;;;;;;20.55;6.78;;;9.00;99.90;;;;;;4935048;29;20489;-75
2022/03/22 00:52:39;;;;;;;14.73;5.72;;;8.90;99.90;;;;;;4934748;29;20035;-75
2022/03/22 00:55:05;;;;;;;16.60;5.95;;;8.90;99.90;;;;;;4934930;29;20051;-75
2022/03/22 00:57:33;;;;;;;19.02;6.25;;;8.90;99.90;;;;;;4926262;29;20020;-75
2022/03/22 01:00:04;;;;;;;17.02;5.88;;;8.90;99.90;;;;;;4915602;29;20408;-75
2022/03/22 01:02:34;;;;;;;18.92;6.60;;;8.90;99.90;;;;;;4914995;29;20040;-75
2022/03/22 01:05:04;;;;;;;11.57;6.53;;;8.90;99.90;;;;;;4915758;29;20028;-75
2022/03/22 01:07:31;;;;;;;21.35;7.18;;;8.80;99.90;;;;;;4915725;29;20423;-75
2022/03/22 01:09:57;;;;;;;20.00;6.88;;;8.80;99.90;;;;;;4915563;29;20119;-75
2022/03/22 01:12:23;;;;;;;14.50;5.85;;;8.90;99.90;;;;;;4933864;29;20122;-76
2022/03/22 01:14:49;;;;;;;13.23;5.38;;;8.90;99.80;;;;;;4934508;29;20020;-75
2022/03/22 01:17:15;;;;;;;13.10;5.55;;;8.90;99.70;;;;;;4936884;29;20027;-75
2022/03/22 01:19:41;;;;;;;14.10;5.57;;;8.90;99.70;;;;;;4937459;29;20087;-75
2022/03/22 01:22:06;;;;;;;16.00;5.35;;;8.90;99.50;;;;;;4937870;29;20031;-75
2022/03/22 01:24:32;;;;;;;20.23;6.25;;;8.90;99.40;;;;;;4937945;29;20030;-75
2022/03/22 01:26:58;;;;;;;15.15;5.43;;;8.90;98.80;;;;;;4938263;29;20464;-75
2022/03/22 01:29:24;;;;;;;14.60;5.63;;;8.90;98.30;;;;;;4937695;29;20027;-75
2022/03/22 01:31:50;;;;;;;17.33;5.63;;;8.90;98.00;;;;;;4937507;29;20055;-75
2022/03/22 01:34:16;;;;;;;15.23;4.88;;;8.90;97.60;;;;;;4937893;29;20542;-75
2022/03/22 01:36:42;;;;;;;18.00;6.60;;;8.80;97.50;;;;;;4936841;29;20031;-75
2022/03/22 01:39:07;;;;;;;16.63;5.95;;;8.90;97.10;;;;;;4937421;29;20031;-75
2022/03/22 01:41:34;;;;;;;9.85;5.03;;;8.90;96.80;;;;;;4937798;29;20024;-75
2022/03/22 01:44:00;;;;;;;24.23;5.10;;;8.80;96.70;;;;;;4937699;29;20162;-75
2022/03/22 01:46:27;;;;;;;14.25;5.32;;;8.90;96.50;;;;;;4937156;29;20031;-75
2022/03/22 01:48:53;;;;;;;12.00;5.53;;;8.90;95.90;;;;;;4920597;29;20032;-75
2022/03/22 01:51:21;;;;;;;16.08;5.65;;;8.90;95.60;;;;;;4936432;29;20035;-75
2022/03/22 01:53:47;;;;;;;11.80;5.32;;;8.90;95.00;;;;;;4937010;29;20036;-75
2022/03/22 01:56:13;;;;;;;10.50;4.38;;;8.90;94.40;;;;;;4937716;29;20031;-75
2022/03/22 01:58:39;;;;;;;11.10;5.47;;;8.90;94.10;;;;;;4929687;29;20492;-75
2022/03/22 02:06:35;;;;;;;18.85;6.13;;;8.90;94.00;;;;;;4937304;29;20039;-75
2022/03/22 02:09:02;;;;;;;11.63;5.15;;;8.80;94.60;;;;;;4936888;29;20036;-75
2022/03/22 02:11:28;;;;;;;13.30;5.00;;;8.80;95.30;;;;;;4919930;29;20095;-76
2022/03/22 02:13:54;;;;;;;18.35;5.63;;;8.80;96.20;;;;;;4937111;29;20024;-75
2022/03/22 02:16:21;;;;;;;12.27;5.80;;;8.90;97.00;;;;;;4937120;29;20027;-75
2022/03/22 02:18:48;;;;;;;12.13;6.00;;;8.90;97.80;;;;;;4936859;29;20110;-75
2022/03/22 02:21:15;;;;;;;12.15;6.18;;;8.90;98.60;;;;;;4936852;29;20476;-75
2022/03/22 02:23:55;;;;;;;13.10;5.70;;;8.90;99.00;;;;;;4936818;29;20112;-75
2022/03/22 02:26:23;;;;;;;14.07;6.05;;;8.80;99.40;;;;;;4936493;29;20498;-75
2022/03/22 02:28:53;;;;;;;20.95;6.53;;;8.80;99.70;;;;;;4913557;29;20116;-76
2022/03/22 02:31:19;;;;;;;13.82;5.82;;;8.80;99.90;;;;;;4918053;29;20120;-75
2022/03/22 02:33:46;;;;;;;15.05;6.32;;;8.90;99.90;;;;;;4917695;29;20024;-75
2022/03/22 02:36:12;;;;;;;15.60;7.35;;;8.90;99.90;;;;;;4917746;29;20028;-75
2022/03/22 02:38:37;;;;;;;31.08;6.63;;;9.00;99.90;;;;;;4917676;29;20080;-75
2022/03/22 02:41:05;;;;;;;18.08;6.40;;;9.10;99.90;;;;;;4917651;29;20024;-75
2022/03/22 02:43:31;;;;;;;16.98;7.03;;;9.00;99.90;;;;;;4917519;29;20477;-75
2022/03/22 02:45:57;;;;;;;16.30;6.18;;;9.10;99.90;;;;;;4918309;29;20036;-75
2022/03/22 02:48:22;;;;;;;15.23;5.68;;;9.10;99.90;;;;;;4936712;29;20028;-75
2022/03/22 02:50:48;;;;;;;22.17;7.20;;;9.00;99.90;;;;;;4936132;29;20109;-75
2022/03/22 02:53:14;;;;;;;17.90;7.00;;;9.00;99.90;;;;;;4936409;29;20079;-75
2022/03/22 02:55:39;;;;;;;12.57;6.30;;;9.10;99.90;;;;;;4935790;29;20127;-75
2022/03/22 02:58:05;;;;;;;21.90;7.32;;;9.10;99.90;;;;;;4934384;29;20517;-75
2022/03/22 03:00:31;;;;;;;16.58;6.43;;;9.20;99.90;;;;;;4917412;29;20048;-75
2022/03/22 03:02:57;;;;;;;19.15;6.68;;;9.20;99.90;;;;;;4917049;29;20028;-75
2022/03/22 03:05:23;;;;;;;14.10;6.95;;;9.20;99.90;;;;;;4917209;29;20044;-75
2022/03/22 03:07:50;;;;;;;14.88;6.22;;;9.10;99.90;;;;;;4917007;29;20030;-75
2022/03/22 03:10:16;;;;;;;10.73;5.78;;;9.10;99.90;;;;;;4917371;29;20196;-75
2022/03/22 03:12:42;;;;;;;15.73;6.35;;;9.10;99.90;;;;;;4899904;29;20031;-75
2022/03/22 03:15:09;;;;;;;16.52;5.93;;;9.10;99.90;;;;;;4900071;29;20193;-75
2022/03/22 03:17:35;;;;;;;11.13;6.47;;;9.20;99.90;;;;;;4936014;29;20031;-75
2022/03/22 03:20:02;;;;;;;17.20;7.30;;;9.10;99.90;;;;;;4935698;29;20553;-75
2022/03/22 03:22:28;;;;;;;19.33;6.88;;;9.20;99.90;;;;;;4918827;29;20048;-75
2022/03/22 03:24:54;;;;;;;16.25;7.03;;;9.10;99.90;;;;;;4935078;29;20452;-75
2022/03/22 03:27:20;;;;;;;15.68;6.97;;;9.10;99.90;;;;;;4935086;29;20024;-75
2022/03/22 03:29:46;;;;;;;11.88;6.65;;;9.10;99.90;;;;;;4933898;29;20571;-75
2022/03/22 03:32:12;;;;;;;12.07;6.75;;;9.00;99.90;;;;;;4935472;29;20028;-75
2022/03/22 03:34:37;;;;;;;17.15;7.40;;;9.00;99.90;;;;;;4935699;29;20031;-76
2022/03/22 03:37:04;;;;;;;15.63;7.20;;;9.10;99.90;;;;;;4935591;29;20102;-75
2022/03/22 03:39:29;;;;;;;13.70;6.57;;;9.10;99.90;;;;;;4935168;29;20039;-75
2022/03/22 03:41:59;;;;;;;14.13;6.75;;;9.20;99.90;;;;;;4917616;29;20016;-76
2022/03/22 03:47:13;;;;;;;14.60;6.53;;;9.10;99.90;;;;;;4934901;29;20031;-76
2022/03/22 03:49:48;;;;;;;13.27;7.38;;;9.10;99.90;;;;;;4935697;29;20094;-76
2022/03/22 03:52:19;;;;;;;11.25;6.32;;;9.10;99.90;;;;;;4935740;29;20081;-76
2022/03/22 03:54:45;;;;;;;18.17;6.00;;;9.20;99.90;;;;;;4918165;29;20119;-76
2022/03/22 03:57:12;;;;;;;12.18;6.53;;;9.10;99.90;;;;;;4934960;29;20267;-76
2022/03/22 03:59:39;;;;;;;12.57;5.60;;;9.20;99.90;;;;;;4927343;29;20024;-76
2022/03/22 04:02:08;;;;;;;9.55;5.95;;;9.20;99.90;;;;;;4930470;29;20032;-75
2022/03/22 04:04:35;;;;;;;9.65;6.18;;;9.10;99.90;;;;;;4935781;29;20091;-75
2022/03/22 04:07:05;;;;;;;12.05;6.57;;;9.10;99.90;;;;;;4935070;29;20027;-75
2022/03/22 04:09:32;;;;;;;16.58;6.93;;;9.10;99.90;;;;;;4935266;29;20023;-76
2022/03/22 04:11:57;;;;;;;14.75;6.40;;;9.20;99.90;;;;;;4934606;29;20024;-76
2022/03/22 04:14:23;;;;;;;14.80;6.78;;;9.20;99.90;;;;;;4935617;29;20030;-76
2022/03/22 04:16:50;;;;;;;12.32;6.38;;;9.20;99.90;;;;;;4935237;29;20154;-76
2022/03/22 04:19:16;;;;;;;17.73;6.43;;;9.20;99.90;;;;;;4934814;29;20099;-76
2022/03/22 04:21:42;;;;;;;14.00;6.05;;;9.20;99.90;;;;;;4935682;29;20034;-76
2022/03/22 04:24:09;;;;;;;12.57;5.95;;;9.20;99.90;;;;;;4935080;29;20020;-75
2022/03/22 04:26:36;;;;;;;12.18;5.80;;;9.20;99.90;;;;;;4934933;29;20083;-75
2022/03/22 04:34:32;;;;;;;19.88;7.07;;;9.40;99.90;;;;;;4935352;29;20408;-76
2022/03/22 04:36:59;;;;;;;12.30;5.53;;;9.50;99.90;;;;;;4921096;29;20028;-76
2022/03/22 04:39:27;;;;;;;14.68;5.53;;;9.40;99.90;;;;;;4898980;29;20457;-76
2022/03/22 04:41:53;;;;;;;15.43;4.57;;;9.40;99.90;;;;;;4915933;29;20020;-76
2022/03/22 04:44:19;;;;;;;18.92;5.43;;;9.40;99.90;;;;;;4916036;29;20033;-75
2022/03/22 04:46:45;;;;;;;14.55;4.82;;;9.30;99.90;;;;;;4922563;29;20048;-75
2022/03/22 04:49:11;;;;;;;15.82;5.88;;;9.30;99.90;;;;;;4934611;29;20118;-75
2022/03/22 04:57:05;;;;;;;15.10;5.25;;;9.30;99.90;;;;;;4938278;29;20440;-75
2022/03/22 04:59:31;;;;;;;15.13;5.00;;;9.30;99.90;;;;;;4938599;29;20020;-75
2022/03/22 05:01:57;;;;;;;11.95;4.47;;;9.30;99.90;;;;;;4938216;29;20027;-76
2022/03/22 05:04:23;;;;;;;11.32;4.22;;;9.40;99.70;;;;;;4938338;29;20120;-76
2022/03/22 05:06:48;;;;;;;13.32;4.75;;;9.40;99.50;;;;;;4938368;29;20163;-75
2022/03/22 05:09:14;;;;;;;10.52;4.63;;;9.30;99.60;;;;;;4937101;29;20020;-75
2022/03/22 05:11:40;;;;;;;11.38;4.78;;;9.30;99.80;;;;;;4938506;29;20495;-76
2022/03/22 05:14:06;;;;;;;9.63;4.20;;;9.40;99.90;;;;;;4938187;29;20034;-77
2022/03/22 05:16:32;;;;;;;14.50;4.90;;;9.40;99.90;;;;;;4938083;29;20027;-77
2022/03/22 05:18:58;;;;;;;11.63;4.80;;;9.30;99.90;;;;;;4937944;29;20020;-76
2022/03/22 05:21:25;;;;;;;9.13;3.70;;;9.20;99.90;;;;;;4938141;29;20115;-76
2022/03/22 05:23:51;;;;;;;11.35;5.22;;;9.30;99.90;;;;;;4938031;29;20127;-76
2022/03/22 05:26:17;;;;;;;16.20;4.88;;;9.20;99.90;;;;;;4937959;29;20038;-76
2022/03/22 05:28:44;;;;;;;12.85;4.60;;;9.30;99.90;;;;;;4938100;29;20032;-76
2022/03/22 05:31:12;;;;;;;13.73;4.88;;;9.40;99.90;;;;;;4934675;29;20115;-76
2022/03/22 05:33:38;;;;;;;11.32;4.90;;;9.40;99.90;;;;;;4918964;29;20104;-76
2022/03/22 05:36:05;;;;;;;12.23;4.28;;;9.40;99.90;;;;;;4925365;29;20032;-76
2022/03/22 05:38:31;;;;;;;13.52;4.75;;;9.40;99.90;;;;;;4925916;29;20481;-77
2022/03/22 05:40:57;;;;;;;19.08;4.63;;;9.40;99.90;;;;;;4933526;29;20063;-76
2022/03/22 05:43:26;;;;;;;16.02;5.13;;;9.40;99.90;;;;;;4937645;29;20070;-76
2022/03/22 05:45:52;;;;;;;10.82;4.22;;;9.40;99.90;;;;;;4920384;29;20091;-76
2022/03/22 05:48:19;;;;;;;18.42;4.90;;;9.40;99.90;;;;;;4937531;29;20032;-76
2022/03/22 05:50:45;;;;;;;13.10;4.20;;;9.40;99.90;;;;;;4937047;29;20499;-76
2022/03/22 05:53:11;;;;;;;16.40;3.80;;;9.40;99.90;;;;;;4910450;29;20024;-76
2022/03/22 05:55:37;;;;;;;11.48;4.78;;;9.30;99.90;;;;;;4926041;29;20385;-76
2022/03/22 05:58:04;;;;;;;18.63;4.95;;;9.40;99.90;;;;;;4926798;29;20479;-76
2022/03/22 06:00:29;;;;;;;13.15;4.68;;;9.30;99.90;;;;;;4921592;29;20369;-76
2022/03/22 06:02:55;;;;;;;18.05;4.40;;;9.30;99.90;;;;;;4929687;29;20084;-75
2022/03/22 06:05:21;;;;;;;15.23;5.22;;;9.40;99.90;;;;;;4924136;29;20032;-76
2022/03/22 06:07:47;;;;;;;14.18;4.53;;;9.40;99.90;;;;;;4929348;29;20051;-76
2022/03/22 06:10:13;;;;;;;15.90;5.15;;;9.50;99.90;;;;;;4923781;29;20534;-76
2022/03/22 06:12:44;;;;;;;20.58;5.72;;;9.30;99.90;;;;;;4938771;29;20043;-77
2022/03/22 06:15:19;;;;;;;9.60;4.53;;;9.30;99.90;;;;;;4939516;29;20039;-77
2022/03/22 06:17:46;;;;;;;19.13;4.65;;;9.30;99.90;;;;;;4944782;29;20058;-76
2022/03/22 06:20:13;;;;;;;17.02;4.50;;;9.30;99.90;;;;;;4932925;29;20103;-76
2022/03/22 06:22:39;;;;;;;10.90;4.70;;;9.30;99.90;;;;;;4939751;29;20035;-76
2022/03/22 06:25:05;;;;;;;40.83;15.25;;;9.30;99.90;;;;;;4931591;29;20023;-76
2022/03/22 06:27:33;;;;;;;25.58;8.70;;;9.30;99.90;;;;;;4928319;29;20035;-73
2022/03/22 06:29:59;;;;;;;22.88;10.40;;;9.30;99.90;;;;;;4928834;29;20035;-76
2022/03/22 06:32:24;;;;;;;17.77;4.78;;;9.30;99.90;;;;;;4933515;29;20379;-76
2022/03/22 06:34:52;;;;;;;13.32;5.05;;;9.40;99.90;;;;;;4922711;29;20024;-76
2022/03/22 06:37:17;;;;;;;16.27;4.93;;;9.40;99.90;;;;;;4936229;29;20492;-77
2022/03/22 06:39:43;;;;;;;14.35;4.80;;;9.40;99.90;;;;;;4915996;29;20032;-75
2022/03/22 06:42:08;;;;;;;15.63;4.60;;;9.40;99.90;;;;;;4927942;29;20066;-75
2022/03/22 06:44:37;;;;;;;12.32;4.85;;;9.40;99.90;;;;;;4926878;29;20110;-75
2022/03/22 06:47:04;;;;;;;14.13;4.45;;;9.50;99.90;;;;;;4931494;29;20043;-75
2022/03/22 07:26:12;;;;;;;12.65;4.45;;;10.20;98.90;;;;;;5953349;23;21190;-75
2022/03/22 07:28:37;;;;;;;10.50;3.83;;;10.20;99.20;;;;;;4992283;28;20022;-75
2022/03/22 07:31:03;;;;;;;9.63;4.78;;;10.30;98.80;;;;;;4993451;28;20097;-76
2022/03/22 07:33:29;;;;;;;12.15;3.85;;;10.40;98.70;;;;;;4993319;28;20072;-75
2022/03/22 07:35:55;;;;;;;26.90;4.32;;;10.50;98.40;;;;;;4993541;28;20450;-74
2022/03/22 07:38:21;;;;;;;14.30;3.50;;;10.50;98.40;;;;;;4993141;28;20018;-75
2022/03/22 07:40:46;;;;;;;10.93;4.47;;;10.50;98.40;;;;;;4992932;28;20084;-75
2022/03/22 07:43:12;;;;;;;13.77;4.57;;;10.50;98.30;;;;;;4984462;28;20026;-75
2022/03/22 07:45:38;;;;;;;24.65;4.25;;;10.50;98.10;;;;;;4992448;28;20501;-75
2022/03/22 07:48:04;;;;;;;7.72;3.63;;;10.50;98.00;;;;;;4980495;28;20038;-75
2022/03/22 07:53:14;;;;;;;13.02;3.35;;;10.60;98.00;;;;;;4990912;28;20037;-75
2022/03/22 07:55:42;;;;;;;9.68;4.07;;;10.70;97.90;;;;;;4991251;28;20030;-75
2022/03/22 07:58:09;;;;;;;10.05;4.50;;;10.70;97.80;;;;;;4987814;28;20034;-75
2022/03/22 08:00:41;;;;;;;10.98;3.78;;;10.80;97.60;;;;;;4992553;28;20023;-75
2022/03/22 08:03:10;;;;;;;;;;;10.80;97.60;;;;;;4986870;28;20022;-75
2022/03/22 08:05:37;;;;;;;8.80;3.92;;;10.80;97.40;;;;;;4978921;28;20390;-75
2022/03/22 08:08:04;;;;;;;10.90;4.00;;;10.80;97.10;;;;;;4985090;28;20052;-75
2022/03/22 08:10:31;;;;;;;14.13;3.80;;;10.90;96.90;;;;;;4992936;28;20101;-75
2022/03/22 08:13:00;;;;;;;11.93;4.40;;;11.10;96.90;;;;;;4991271;28;20366;-75
2022/03/22 08:15:27;;;;;;;14.90;4.15;;;11.30;96.60;;;;;;4989685;28;20027;-75
2022/03/22 08:17:53;;;;;;;10.38;4.18;;;11.40;96.20;;;;;;4987449;28;20037;-75
2022/03/22 08:20:18;;;;;;;9.85;3.90;;;11.40;95.70;;;;;;4989361;28;20478;-75
2022/03/22 08:22:52;;;;;;;10.30;3.38;;;11.50;95.40;;;;;;4998283;28;20030;-75
2022/03/22 08:25:29;;;;;;;14.35;4.05;;;11.60;95.30;;;;;;4992330;28;20554;-75
2022/03/22 08:27:57;;;;;;;10.55;3.78;;;11.60;95.20;;;;;;4980714;28;20053;-74
2022/03/22 08:30:23;;;;;;;11.05;4.50;;;11.60;94.70;;;;;;4979170;28;20034;-75
2022/03/22 08:32:50;;;;;;;13.77;3.80;;;11.50;94.90;;;;;;4975356;28;20454;-75
2022/03/22 08:35:17;;;;;;;12.73;5.15;;;11.70;94.70;;;;;;4975061;28;20019;-75
2022/03/22 08:37:43;;;;;;;13.88;4.18;;;11.70;94.20;;;;;;4976926;28;20463;-75
2022/03/22 08:40:10;;;;;;;11.75;5.60;;;11.70;94.20;;;;;;4976879;28;20027;-75
2022/03/22 08:42:37;;;;;;;25.92;10.25;;;12.00;94.10;;;;;;4976886;28;20463;-74
2022/03/22 08:45:06;;;;;;;11.75;4.75;;;12.20;93.50;;;;;;4976547;28;20115;-75
2022/03/22 08:47:34;;;;;;;16.38;3.72;;;12.20;93.20;;;;;;4976779;28;20505;-75
2022/03/22 08:50:00;;;;;;;15.52;5.32;;;12.10;92.80;;;;;;4977344;28;20027;-75
2022/03/22 08:52:26;;;;;;;14.23;6.35;;;12.00;93.00;;;;;;4959470;28;20474;-75
2022/03/22 08:54:51;;;;;;;14.88;4.88;;;12.20;93.40;;;;;;4959553;28;20051;-75
2022/03/22 08:57:18;;;;;;;11.40;3.85;;;12.10;92.70;;;;;;4976914;28;20437;-75
2022/03/22 08:59:43;;;;;;;13.48;5.30;;;12.20;92.70;;;;;;4976509;28;20517;-75
2022/03/22 09:02:09;;;;;;;13.98;5.35;;;12.20;92.80;;;;;;4976241;28;20047;-75
2022/03/22 09:07:19;;;;;;;10.50;4.60;;;12.40;92.50;;;;;;4976824;28;20038;-75
2022/03/22 09:09:45;;;;;;;10.00;3.85;;;12.60;92.80;;;;;;4976380;28;20023;-75
2022/03/22 09:12:12;;;;;;;14.20;4.38;;;12.60;91.70;;;;;;4976953;28;20085;-75
2022/03/22 09:14:39;;;;;;;10.90;4.40;;;12.80;91.70;;;;;;4971138;28;20055;-75
2022/03/22 09:17:05;;;;;;;7.40;2.85;;;12.70;90.90;;;;;;4977646;28;20030;-76
2022/03/22 09:19:33;;;;;;;12.90;3.70;;;12.60;90.90;;;;;;4965716;28;20047;-75
2022/03/22 09:22:00;;;;;;;11.30;3.45;;;12.70;91.10;;;;;;4976264;28;20102;-75
2022/03/22 09:24:26;;;;;;;12.15;4.00;;;12.70;90.70;;;;;;4956783;28;20043;-75
2022/03/22 09:26:51;;;;;;;9.63;3.50;;;12.90;90.60;;;;;;4988606;28;20869;-75
2022/03/22 09:29:17;;;;;;;12.20;3.33;;;12.80;90.30;;;;;;4975261;28;20031;-75
2022/03/22 09:31:43;;;;;;;9.15;3.40;;;12.80;89.20;;;;;;4973575;28;20027;-76
2022/03/22 09:34:10;;;;;;;10.05;3.35;;;12.90;89.20;;;;;;4974971;28;20031;-76
2022/03/22 09:36:37;;;;;;;9.85;2.90;;;12.90;89.00;;;;;;4972735;28;20022;-76
2022/03/22 09:39:04;;;;;;;11.00;3.58;;;12.90;87.20;;;;;;4974806;28;20031;-76
2022/03/22 09:41:31;;;;;;;8.93;2.88;;;13.00;86.40;;;;;;4970559;28;20525;-75
2022/03/22 09:43:57;;;;;;;10.60;4.00;;;13.20;86.60;;;;;;4971720;28;20034;-75
2022/03/22 09:46:22;;;;;;;12.23;3.40;;;13.40;86.40;;;;;;4972833;28;20023;-75
2022/03/22 09:48:49;;;;;;;11.90;4.07;;;13.60;84.80;;;;;;4963321;28;20029;-75
2022/03/22 09:54:00;;;;;;;7.60;3.80;;;13.80;81.80;;;;;;4967718;28;20042;-76
2022/03/22 09:56:30;;;;;;;10.40;4.72;;;13.70;81.40;;;;;;4972010;28;20090;-75
2022/03/22 09:59:00;;;;;;;9.52;4.00;;;13.80;82.30;;;;;;4956424;28;20394;-76
2022/03/22 10:01:25;;;;;;;16.90;3.80;;;13.90;83.00;;;;;;4971754;28;20479;-76
2022/03/22 10:03:58;;;;;;;13.80;5.47;;;14.10;82.40;;;;;;4974678;28;20034;-75
2022/03/22 10:06:23;;;;;;;15.10;4.25;;;13.80;82.80;;;;;;4973317;28;20027;-76
2022/03/22 10:08:50;;;;;;;10.90;4.32;;;13.90;82.30;;;;;;4972380;28;20599;-75
2022/03/22 10:11:17;;;;;;;12.52;4.20;;;14.10;83.30;;;;;;4973925;28;20486;-76
2022/03/22 10:14:10;;;;;;;11.55;3.45;;;14.20;81.90;;;;;;4971464;28;20069;-76
2022/03/22 10:16:51;;;;;;;7.38;2.90;;;13.90;81.90;;;;;;4972231;28;20065;-76
2022/03/22 10:19:23;;;;;;;11.82;4.05;;;13.90;81.90;;;;;;4971248;28;20026;-75
2022/03/22 10:21:50;;;;;;;9.30;3.50;;;13.90;79.70;;;;;;4973046;28;20027;-76
2022/03/22 10:24:15;;;;;;;12.23;4.95;;;14.10;80.60;;;;;;4972204;28;20030;-76
2022/03/22 10:26:46;;;;;;;11.70;3.70;;;14.20;80.50;;;;;;4961151;28;20050;-75
2022/03/22 10:29:16;;;;;;;6.47;2.92;;;14.10;80.00;;;;;;4970493;28;20056;-75
2022/03/22 10:31:43;;;;;;;6.43;2.63;;;14.10;80.40;;;;;;4973412;28;20487;-76
2022/03/22 10:34:11;;;;;;;14.82;3.88;;;13.90;80.10;;;;;;4969581;28;20026;-75
2022/03/22 10:36:38;;;;;;;12.05;3.50;;;13.90;77.80;;;;;;4974002;28;20019;-76
2022/03/22 10:39:07;;;;;;;5.50;2.42;;;14.10;78.30;;;;;;4977232;28;20109;-76
2022/03/22 10:41:41;;;;;;;12.43;3.08;;;14.10;77.60;;;;;;4974099;28;20011;-75
2022/03/22 10:44:08;;;;;;;6.40;2.67;;;14.00;77.50;;;;;;4970411;28;20027;-75
2022/03/22 10:46:35;;;;;;;7.40;3.35;;;14.00;78.70;;;;;;4972919;28;20038;-76
2022/03/22 10:49:04;;;;;;;6.57;3.15;;;14.20;77.90;;;;;;4973179;28;20400;-76
2022/03/22 10:51:44;;;;;;;8.55;2.70;;;14.20;75.80;;;;;;4971459;28;20039;-76
2022/03/22 10:54:17;;;;;;;11.27;2.63;;;14.20;76.70;;;;;;4973617;28;20030;-76
2022/03/22 10:56:51;;;;;;;12.77;3.05;;;14.00;75.60;;;;;;4975173;28;20034;-76
2022/03/22 10:59:21;;;;;;;9.23;3.33;;;14.00;76.80;;;;;;4974697;28;20026;-76
2022/03/22 11:01:48;;;;;;;8.75;3.35;;;14.30;77.00;;;;;;4971537;28;20369;-76
2022/03/22 11:04:15;;;;;;;11.10;3.28;;;14.30;76.70;;;;;;4973007;28;20427;-76
2022/03/22 11:06:42;;;;;;;12.27;3.45;;;14.80;78.00;;;;;;4973408;28;20027;-76
2022/03/22 11:09:08;;;;;;;9.32;3.20;;;14.90;78.00;;;;;;4957805;28;20059;-76
2022/03/22 11:11:36;;;;;;;7.00;2.95;;;15.10;77.50;;;;;;4979321;28;20512;-77
2022/03/22 11:14:02;;;;;;;11.15;3.35;;;15.00;76.50;;;;;;4978223;28;20031;-76
2022/03/22 11:16:32;;;;;;;8.15;3.30;;;15.00;77.60;;;;;;4973823;28;20362;-76
2022/03/22 11:18:59;;;;;;;8.32;3.35;;;14.70;77.00;;;;;;4982710;28;20076;-78
2022/03/22 11:21:27;;;;;;;8.40;2.88;;;14.60;77.80;;;;;;4986924;28;20023;-76
2022/03/22 11:24:10;;;;;;;9.98;3.05;;;14.90;78.40;;;;;;4984291;28;20086;-76
2022/03/22 11:26:46;;;;;;;10.82;3.28;;;15.00;77.60;;;;;;4970124;28;20458;-76
2022/03/22 11:29:18;;;;;;;7.07;3.00;;;14.80;76.40;;;;;;4973965;28;20037;-76
2022/03/22 11:34:29;;;;;;;9.38;3.65;;;15.10;77.20;;;;;;4970142;28;20094;-76
2022/03/22 11:36:58;;;;;;;8.65;3.83;;;15.00;78.70;;;;;;4971605;28;20029;-76
2022/03/22 11:42:24;;;;;;;11.85;3.15;;;15.30;77.90;;;;;;4972554;28;20218;-76
2022/03/22 11:45:07;;;;;;;11.65;3.35;;;15.20;77.80;;;;;;4972371;28;20030;-76
2022/03/22 11:47:41;;;;;;;9.18;3.47;;;15.00;77.90;;;;;;4972758;28;20027;-76
2022/03/22 11:50:09;;;;;;;6.80;3.05;;;15.20;78.50;;;;;;4972326;28;20097;-76
2022/03/22 11:52:41;;;;;;;11.25;3.20;;;15.40;78.40;;;;;;4973858;28;20050;-76
2022/03/22 11:55:09;;;;;;;6.72;2.90;;;15.50;77.10;;;;;;4955457;28;20550;-76
2022/03/22 11:57:41;;;;;;;11.15;3.13;;;15.40;78.20;;;;;;4981861;28;20466;-76
2022/03/22 12:00:07;;;;;;;11.50;2.97;;;15.30;78.40;;;;;;4973093;28;20034;-76
2022/03/22 12:02:38;;;;;;;8.95;2.83;;;15.10;78.40;;;;;;4972884;28;20023;-76
2022/03/22 12:05:04;;;;;;;8.63;3.53;;;15.10;78.00;;;;;;4973568;28;20031;-76
2022/03/22 12:07:36;;;;;;;11.90;3.30;;;15.20;77.50;;;;;;4970731;28;20122;-76
2022/03/22 12:10:34;;;;;;;17.58;5.60;;;14.90;77.50;;;;;;4974419;28;20061;-75
2022/03/22 12:13:00;;;;;;;31.60;12.13;;;15.00;77.80;;;;;;4839347;29;20148;-75
2022/03/22 12:15:27;;;;;;;13.70;5.13;;;14.90;77.80;;;;;;4853983;29;20515;-75
2022/03/22 12:17:53;;;;;;;22.13;8.05;;;14.70;77.30;;;;;;4857849;29;20113;-75
2022/03/22 12:20:21;;;;;;;16.92;6.78;;;14.80;77.70;;;;;;4839632;29;20029;-75
2022/03/22 12:22:49;;;;;;;11.98;3.30;;;15.10;78.20;;;;;;4857959;29;20041;-75
2022/03/22 12:25:17;;;;;;;10.57;4.28;;;15.00;77.70;;;;;;4855801;29;20041;-75
2022/03/22 12:28:09;;;;;;;11.75;3.63;;;15.20;77.00;;;;;;4833906;29;20487;-77
2022/03/22 12:30:43;;;;;;;6.68;3.33;;;15.20;77.90;;;;;;4853595;29;20119;-76
2022/03/22 12:33:14;;;;;;;7.75;3.30;;;14.80;77.10;;;;;;4856932;29;20091;-76
2022/03/22 12:35:41;;;;;;;9.00;2.80;;;14.80;77.60;;;;;;4855396;29;20040;-76
2022/03/22 12:38:08;;;;;;;10.30;3.10;;;14.90;78.20;;;;;;4860752;29;20029;-76
2022/03/22 12:40:35;;;;;;;11.70;3.33;;;15.10;80.10;;;;;;4867876;29;20042;-78
2022/03/22 12:43:03;;;;;;;10.95;3.80;;;15.40;80.80;;;;;;4869551;29;20041;-76
2022/03/22 12:45:32;;;;;;;7.38;2.85;;;15.30;79.90;;;;;;4856404;29;20034;-76
2022/03/22 12:47:58;;;;;;;9.57;3.58;;;15.40;78.60;;;;;;4882448;28;20121;-76
2022/03/22 12:50:24;;;;;;;12.25;3.15;;;15.00;78.60;;;;;;4973007;28;20038;-76
2022/03/22 12:52:51;;;;;;;12.10;3.40;;;14.90;79.40;;;;;;4971356;28;20059;-76
2022/03/22 12:55:19;;;;;;;7.53;3.05;;;14.90;79.80;;;;;;4972531;28;20181;-76
2022/03/22 12:57:48;;;;;;;10.95;3.65;;;15.00;79.70;;;;;;4968903;28;20074;-76
2022/03/22 13:00:37;;;;;;;9.15;3.50;;;15.10;78.00;;;;;;4983346;28;20026;-76
2022/03/22 13:03:16;;;;;;;9.60;3.25;;;15.00;76.50;;;;;;4974043;28;20165;-76
2022/03/22 13:05:47;;;;;;;9.98;2.67;;;14.80;76.20;;;;;;4980790;28;20398;-76
2022/03/22 13:08:18;;;;;;;9.43;2.97;;;14.90;75.90;;;;;;4970647;28;20038;-76
2022/03/22 13:15:01;;;;;;;6.25;3.55;;;14.60;75.00;;;;;;4971937;28;20052;-76
2022/03/22 13:16:25;;;;;;;6.45;3.38;;;14.80;76.20;;;;;;4976324;28;20034;-76
2022/03/22 13:18:52;;;;;;;8.00;3.95;;;14.90;75.60;;;;;;4974747;28;20478;-76
2022/03/22 13:21:23;;;;;;;11.38;4.03;;;15.10;75.70;;;;;;4976126;28;20078;-77
2022/03/22 13:24:02;;;;;;;16.98;3.63;;;15.10;75.10;;;;;;4973020;28;20034;-77
2022/03/22 13:26:28;;;;;;;8.13;3.28;;;14.90;74.60;;;;;;4975468;28;20051;-76
2022/03/22 13:28:53;;;;;;;5.07;3.08;;;14.70;75.30;;;;;;4972839;28;20783;-76
2022/03/22 13:31:25;;;;;;;14.75;4.00;;;14.50;75.00;;;;;;4969475;28;20035;-76
2022/03/22 13:33:55;;;;;;;8.05;3.15;;;14.50;76.20;;;;;;4972738;28;20038;-76
2022/03/22 13:36:22;;;;;;;7.40;3.47;;;14.50;74.00;;;;;;4975884;28;20033;-76
2022/03/22 13:38:52;;;;;;;7.53;2.92;;;14.40;73.90;;;;;;4974563;28;20101;-76
2022/03/22 13:41:29;;;;;;;9.80;3.30;;;14.30;74.10;;;;;;4975704;28;20019;-76
2022/03/22 13:43:55;;;;;;;5.65;2.75;;;14.50;74.30;;;;;;4973045;28;20042;-77
2022/03/22 13:46:21;;;;;;;15.20;3.58;;;14.40;73.50;;;;;;4974885;28;20041;-77
2022/03/22 13:48:53;;;;;;;9.63;3.90;;;14.40;72.70;;;;;;4974272;28;20030;-76
2022/03/22 13:51:20;;;;;;;11.15;3.83;;;14.30;72.80;;;;;;4973142;28;20018;-76
2022/03/22 13:53:47;;;;;;;6.95;3.45;;;14.30;72.30;;;;;;4974419;28;20441;-76
2022/03/22 13:56:14;;;;;;;13.70;3.92;;;14.30;73.10;;;;;;4972885;28;20042;-76
2022/03/22 13:58:41;;;;;;;9.73;3.45;;;14.50;73.00;;;;;;4974956;28;20101;-76